SBRF/REC METAR and TAF weather

Enter ICAO airport designator
Station Type Date Time Source
SBRF METAR 2022/06/25 22:00 UTC NOAA

SBRF 252200Z 20005KT 9999 FEW025 25/22 Q1013


Station Type Date Time Source
SBRF Decoded METAR 2022/06/25 22:00 UTC NOAA

Recife Aeroporto , Brazil (SBRF) 08-04S 034-51W
Jun 25, 2022 - 06:00 PM EDT / 2022.06.25 2200 UTC
Wind: from the SSW (200 degrees) at 6 MPH (5 KT):0
Visibility: greater than 7 mile(s):0
Sky conditions: mostly clear
Temperature: 77 F (25 C)
Dew Point: 71 F (22 C)
Relative Humidity: 83%
Pressure (altimeter): 29.91 in. Hg (1013 hPa)
ob: SBRF 252200Z 20005KT 9999 FEW025 25/22 Q1013
cycle: 22

Station Type Date Time Source
SBRF TAF 2022/06/25 18:19 UTC NOAA

TAF SBRF 251610Z 2518/2618 13010KT 9999 SCT020 FEW025TCU TX28/2518Z TN22/2609Z PROB40
TEMPO 2519/2601 5000 RA
BECMG 2601/2603 21005KT FEW025
BECMG 2616/2618 16010KT SCT020 FEW025TCU
RMK PGX

Example: see airport list